Augusta, GA

11:46 PM EDT on April 18, 2015 (GMT -0400)
Lake Olmstead | | Change Station
CLOSE
Current Station
Personal Weather Station
Location: Augusta, GA
Elevation: 213 ft
Nearby Weather Stations

Elev 213 ft 33.50 °N, 82.00 °W | Updated 14 minutes ago

Partly Cloudy
Partly Cloudy
64.9 °F
Feels Like 64.9 °F
N
0.0
Wind Variable Wind from NE

Today
High -- | Low -- °F
--% Chance of Precip.
Yesterday
High -- | Low -- °F
Precip. -- in
6:54 AM 8:00 PM
New Moon, 0% visible
Pressure 29.98 in
Visibility 10.0 miles
Clouds Scattered Clouds 600 ft
Dew Point 65 °F
Humidity 99%
Rainfall 1.02 in
Snow Depth Not available.
UV 0 out of 12
Pollen 8.20 out of 12
Air Quality Not available.
Flu Activity Sporadic
SPECI KDNL 190300Z AUTO 11005KT 10SM SCT006 21/19 A2998 RMK AO2 T02060189

More Conditions Fewer Conditions

Pressure 29.98 in
Visibility 10.0 miles
Clouds Scattered Clouds 600 ft
Dew Point 65 °F
Humidity 99%
Rainfall 1.02 in
Snow Depth Not available.
UV 0 out of 12
Pollen 8.20 out of 12
Air Quality Not available.
Flu Activity Sporadic
SPECI KDNL 190300Z AUTO 11005KT 10SM SCT006 21/19 A2998 RMK AO2 T02060189

More Conditions Fewer Conditions

10-Day Weather Forecast

Almanac

Astronomy

Apr. 18, 2015 Rise Set
Actual Time
Civil Twilight
Nautical Twilight
Astronomical Twilight
Moon
Length of Visible Light
Length of Day
Tomorrow will be .
, % of the Moon is Illuminated

Today's Extremes

State Highs State Lows

Community

WunderPhotos

Upload Photos

1,814,710 photos uploaded!

WunderBlogs® & News

Nearby

Air Quality

  Air Quality AQ Index Pollutant
Not available.

Snow Depth

Station Depth Elevation

Earthquake Activity

City Distance Mag. Time & Date
Minimum magnitude displayed is 2.5.

Coastal Water Temperatures

Place Temperature

Stations

Nearby Weather Stations

Station Location Temp. Windchill Dew Point Humidity Wind Precip. Elev Updated Type